createdAt,value
2023-01-01T00:01:40.531Z,3.28
2023-01-01T00:06:32.746Z,7.13
2023-01-01T00:11:24.535Z,2.25
2023-01-01T00:16:16.316Z,10.45
2023-01-01T00:21:12.458Z,2.08
2023-01-01T00:26:11.814Z,3.53
2023-01-01T00:31:11.567Z,6.70
2023-01-01T00:36:14.149Z,5.50
2023-01-01T00:41:06.044Z,4.97
2023-01-01T00:45:57.824Z,3.35
2023-01-01T00:50:50.746Z,4.03
2023-01-01T00:55:44.293Z,7.22
2023-01-01T01:00:36.852Z,4.00
2023-01-01T01:05:28.587Z,3.95
2023-01-01T01:10:22.285Z,2.75
2023-01-01T01:15:15.293Z,6.28
2023-01-01T01:20:07.985Z,2.47
2023-01-01T01:24:59.670Z,5.60
2023-01-01T01:29:51.551Z,1.67
2023-01-01T01:34:43.163Z,1.67
2023-01-01T01:39:34.997Z,0.95
2023-01-01T01:44:48.541Z,2.40
2023-01-01T01:49:40.345Z,3.47
2023-01-01T01:54:32.269Z,4.10
2023-01-01T01:59:27.528Z,3.13
2023-01-01T02:04:19.886Z,4.28
2023-01-01T02:09:11.738Z,0.88
2023-01-01T02:14:04.160Z,6.25
2023-01-01T02:19:06.066Z,4.32
2023-01-01T02:24:21.342Z,0.88
2023-01-01T02:29:30.903Z,3.78
2023-01-01T02:34:27.221Z,2.90
2023-01-01T02:39:22.832Z,5.43
2023-01-01T02:44:15.507Z,2.50
2023-01-01T02:49:10.595Z,2.28
2023-01-01T02:54:20.640Z,3.33
2023-01-01T02:59:43.250Z,8.65
2023-01-01T03:04:40.444Z,4.32
2023-01-01T03:09:44.665Z,1.88
2023-01-01T03:14:54.013Z,1.88
2023-01-01T03:19:48.720Z,4.60
2023-01-01T03:24:59.394Z,4.30
2023-01-01T03:29:56.729Z,2.95
2023-01-01T03:34:57.433Z,4.40
2023-01-01T03:39:53.081Z,2.25
2023-01-01T03:44:54.348Z,7.78
2023-01-01T03:49:46.891Z,7.35
2023-01-01T03:55:15.273Z,3.80
2023-01-01T04:00:09.637Z,8.90
2023-01-01T04:05:05.095Z,4.47
2023-01-01T04:10:00.620Z,4.10
2023-01-01T04:14:52.424Z,12.95
2023-01-01T04:19:44.900Z,3.17
2023-01-01T04:24:39.260Z,5.43
2023-01-01T04:29:31.011Z,6.95
2023-01-01T04:34:22.820Z,4.10
2023-01-01T04:39:14.422Z,11.68
2023-01-01T04:44:06.150Z,5.68
2023-01-01T04:48:58.065Z,7.28
2023-01-01T04:53:49.650Z,10.40
2023-01-01T04:58:42.739Z,9.00
2023-01-01T05:03:37.940Z,4.03
2023-01-01T05:08:34.233Z,6.50
2023-01-01T05:13:25.940Z,5.78
2023-01-01T05:18:17.515Z,4.93
2023-01-01T05:23:09.105Z,5.18
2023-01-01T05:28:00.850Z,5.43
2023-01-01T05:32:52.532Z,5.72
2023-01-01T05:37:44.225Z,3.50
2023-01-01T05:42:36.215Z,7.53
2023-01-01T05:47:30.062Z,9.15
2023-01-01T05:52:26.465Z,6.47
2023-01-01T05:57:18.654Z,7.07
2023-01-01T06:02:10.396Z,9.95
2023-01-01T06:07:02.223Z,9.80
2023-01-01T06:11:53.885Z,13.07
2023-01-01T06:16:45.581Z,4.90
2023-01-01T06:21:37.286Z,9.55
2023-01-01T06:26:31.732Z,9.70
2023-01-01T06:31:24.586Z,6.15
2023-01-01T06:36:17.715Z,7.70
2023-01-01T06:41:23.658Z,7.68
2023-01-01T06:46:33.873Z,5.45
2023-01-01T06:51:28.262Z,7.50
2023-01-01T06:56:20.714Z,5.40
2023-01-01T07:01:15.468Z,3.35
2023-01-01T07:06:08.459Z,6.43
2023-01-01T07:11:00.624Z,1.45
2023-01-01T07:15:53.472Z,2.60
2023-01-01T07:20:49.815Z,3.20
2023-01-01T07:25:42.397Z,2.35
2023-01-01T07:30:34.130Z,3.95
2023-01-01T07:35:25.950Z,3.40
2023-01-01T07:40:17.593Z,2.28
2023-01-01T07:45:12.486Z,5.30
2023-01-01T07:50:04.590Z,4.47
2023-01-01T07:54:56.303Z,3.28
2023-01-01T07:59:47.929Z,8.82
2023-01-01T08:04:39.916Z,5.15
2023-01-01T08:09:31.655Z,5.88
2023-01-01T08:14:23.372Z,5.72
2023-01-01T08:19:15.018Z,7.43
2023-01-01T08:24:06.959Z,6.70
2023-01-01T08:28:59.184Z,11.65
2023-01-01T08:33:50.825Z,5.85
2023-01-01T08:38:43.706Z,7.47
2023-01-01T08:43:35.351Z,9.93
2023-01-01T08:48:30.704Z,8.43
2023-01-01T08:53:23.121Z,14.65
2023-01-01T08:58:14.781Z,8.63
2023-01-01T09:03:06.784Z,8.30
2023-01-01T09:07:58.562Z,11.88
2023-01-01T09:12:50.244Z,6.15
2023-01-01T09:17:41.874Z,8.70
2023-01-01T09:22:34.179Z,10.10
2023-01-01T09:27:25.863Z,11.23
2023-01-01T09:32:18.794Z,8.55
2023-01-01T09:37:10.462Z,8.32
2023-01-01T09:42:26.525Z,13.10
2023-01-01T09:47:23.324Z,10.85
2023-01-01T09:52:16.787Z,12.80
2023-01-01T09:57:19.601Z,14.77
2023-01-01T10:02:41.419Z,15.00
2023-01-01T10:08:00.382Z,13.82
2023-01-01T10:13:06.455Z,19.40
2023-01-01T10:18:00.607Z,19.10
2023-01-01T10:23:14.905Z,14.93
2023-01-01T10:28:23.806Z,23.13
2023-01-01T10:33:15.509Z,16.25
2023-01-01T10:38:07.750Z,12.43
2023-01-01T10:43:01.518Z,12.90
2023-01-01T10:48:25.986Z,20.73
2023-01-01T10:53:35.609Z,16.38
2023-01-01T10:58:35.238Z,15.30
2023-01-01T11:03:27.048Z,14.32
2023-01-01T11:08:19.387Z,7.70
2023-01-01T11:13:20.078Z,4.78
2023-01-01T11:18:20.737Z,4.63
2023-01-01T11:23:39.336Z,4.32
2023-01-01T11:28:34.426Z,2.97
2023-01-01T11:33:27.584Z,3.55
2023-01-01T11:38:24.435Z,7.07
2023-01-01T11:43:22.634Z,6.25
2023-01-01T11:48:28.238Z,6.03
2023-01-01T11:53:22.920Z,9.68
2023-01-01T11:58:38.792Z,6.82
2023-01-01T12:03:55.555Z,6.10
2023-01-01T12:08:50.902Z,6.78
2023-01-01T12:13:52.413Z,7.20
2023-01-01T12:18:56.136Z,4.53
2023-01-01T12:23:47.804Z,2.90
2023-01-01T12:28:57.874Z,7.43
2023-01-01T12:34:13.259Z,5.25
2023-01-01T12:39:45.547Z,8.27
2023-01-01T12:44:55.492Z,8.05
2023-01-01T12:50:10.606Z,5.25
2023-01-01T12:55:20.829Z,10.48
2023-01-01T13:00:18.118Z,9.70
2023-01-01T13:05:43.286Z,4.63
2023-01-01T13:10:39.219Z,5.43
2023-01-01T13:15:44.173Z,9.90
2023-01-01T13:20:41.064Z,8.52
2023-01-01T13:25:32.762Z,11.43
2023-01-01T13:30:36.434Z,12.80
2023-01-01T13:35:28.256Z,13.18
2023-01-01T13:40:30.240Z,15.00
2023-01-01T13:50:59.403Z,8.15
2023-01-01T13:56:15.577Z,9.60
2023-01-01T14:01:13.018Z,5.45
2023-01-01T14:06:14.583Z,4.80
2023-01-01T14:11:24.850Z,4.72
2023-01-01T14:16:16.846Z,6.15
2023-01-01T14:21:15.561Z,4.05
2023-01-01T14:26:12.570Z,4.90
2023-01-01T14:31:22.517Z,5.53
2023-01-01T14:36:22.232Z,3.67
2023-01-01T14:41:40.830Z,4.20
2023-01-01T14:46:33.292Z,6.25
2023-01-01T14:51:26.937Z,4.47
2023-01-01T14:56:26.178Z,3.90
2023-01-01T15:01:24.001Z,7.80
2023-01-01T15:06:18.058Z,3.90
2023-01-01T15:11:09.793Z,5.55
2023-01-01T15:16:20.171Z,5.07
2023-01-01T15:21:30.796Z,8.95
2023-01-01T15:26:29.250Z,6.97
2023-01-01T15:31:21.026Z,10.15
2023-01-01T15:36:12.664Z,8.00
2023-01-01T15:41:45.090Z,6.35
2023-01-01T15:46:36.865Z,8.95
2023-01-01T15:51:29.713Z,9.45
2023-01-01T15:56:25.983Z,12.55
2023-01-01T16:01:27.819Z,15.35
2023-01-01T16:06:21.792Z,8.32
2023-01-01T16:11:14.543Z,12.77
2023-01-01T16:16:22.519Z,13.40
2023-01-01T16:21:14.215Z,15.00
2023-01-01T16:26:05.813Z,16.77
2023-01-01T16:30:58.125Z,20.30
2023-01-01T16:35:50.025Z,19.50
2023-01-01T16:40:41.737Z,12.13
2023-01-01T16:45:33.479Z,12.43
2023-01-01T16:50:25.258Z,16.70
2023-01-01T16:55:17.011Z,12.63
2023-01-01T17:00:09.469Z,16.85
2023-01-01T17:05:01.153Z,14.70
2023-01-01T17:09:52.830Z,15.48
2023-01-01T17:14:44.585Z,15.98
2023-01-01T17:19:36.299Z,13.00
2023-01-01T17:24:27.998Z,14.63
2023-01-01T17:29:23.642Z,15.88
2023-01-01T17:34:15.540Z,15.13
2023-01-01T17:39:07.221Z,16.20
2023-01-01T17:43:59.373Z,20.38
2023-01-01T17:48:51.689Z,12.38
2023-01-01T17:53:43.693Z,14.02
2023-01-01T17:58:35.902Z,17.35
2023-01-01T18:03:27.768Z,10.68
2023-01-01T18:08:19.459Z,12.82
2023-01-01T18:13:11.279Z,16.50
2023-01-01T18:18:02.985Z,15.88
2023-01-01T18:22:59.539Z,11.60
2023-01-01T18:27:57.175Z,14.98
2023-01-01T18:32:49.429Z,15.50
2023-01-01T18:37:41.175Z,11.73
2023-01-01T18:42:49.040Z,16.15
2023-01-01T18:47:40.677Z,10.27
2023-01-01T18:52:34.222Z,16.70
2023-01-01T18:57:29.465Z,14.88
2023-01-01T19:02:29.040Z,14.70
2023-01-01T19:07:20.719Z,14.90
2023-01-01T19:12:17.801Z,9.57
2023-01-01T19:17:21.495Z,17.95
2023-01-01T19:22:24.481Z,16.73
2023-01-01T19:27:17.921Z,13.02
2023-01-01T19:32:09.681Z,10.68
2023-01-01T19:37:02.161Z,20.50
2023-01-01T19:41:53.908Z,11.13
2023-01-01T19:46:45.768Z,11.60
2023-01-01T19:51:37.500Z,14.32
2023-01-01T19:56:29.144Z,12.65
2023-01-01T20:01:20.898Z,14.25
2023-01-01T20:06:12.696Z,16.70
2023-01-01T20:11:05.801Z,11.13
2023-01-01T20:15:58.256Z,10.40
2023-01-01T20:21:08.379Z,6.82
2023-01-01T20:26:00.044Z,11.52
2023-01-01T20:30:51.759Z,14.90
2023-01-01T20:36:01.916Z,11.13
2023-01-01T20:40:53.705Z,15.48
2023-01-01T20:45:45.494Z,7.78
2023-01-01T20:50:37.338Z,10.95
2023-01-01T20:55:29.054Z,20.58
2023-01-01T21:00:20.807Z,14.15
2023-01-01T21:05:13.089Z,10.38
2023-01-01T21:10:05.248Z,9.65
2023-01-01T21:14:57.040Z,9.30
2023-01-01T21:19:50.894Z,8.43
2023-01-01T21:24:42.917Z,15.98
2023-01-01T21:29:35.508Z,5.15
2023-01-01T21:34:41.780Z,10.45
2023-01-01T21:39:33.459Z,15.00
2023-01-01T21:44:25.233Z,11.85
2023-01-01T21:49:27.958Z,18.40
2023-01-01T21:54:35.401Z,8.85
2023-01-01T21:59:42.000Z,5.10
2023-01-01T22:04:51.634Z,5.28
2023-01-01T22:09:48.431Z,4.70
2023-01-01T22:14:45.989Z,4.63
2023-01-01T22:19:38.552Z,5.13
2023-01-01T22:24:35.259Z,4.55
2023-01-01T22:29:27.233Z,6.57
2023-01-01T22:34:23.265Z,8.23
2023-01-01T22:39:35.508Z,6.82
2023-01-01T22:44:27.528Z,4.68
2023-01-01T22:49:30.414Z,8.10
2023-01-01T22:54:22.105Z,4.10
2023-01-01T22:59:13.960Z,5.82
2023-01-01T23:04:05.608Z,8.70
2023-01-01T23:08:57.522Z,9.65
2023-01-01T23:14:10.571Z,3.72
2023-01-01T23:19:02.525Z,5.32
2023-01-01T23:23:56.376Z,5.15
2023-01-01T23:28:48.337Z,3.60
2023-01-01T23:33:41.203Z,5.68
2023-01-01T23:38:33.523Z,2.95
2023-01-01T23:43:25.184Z,3.45
2023-01-01T23:48:17.517Z,5.93
2023-01-01T23:53:09.362Z,4.25
2023-01-01T23:58:01.031Z,5.95
